createdAt,value
2022-09-03T17:33:56.546Z,38.92
2022-09-03T17:37:32.891Z,39.93
2022-09-03T17:41:19.696Z,40.06
2022-09-03T17:45:04.384Z,40.18
2022-09-03T17:48:52.504Z,40.46
2022-09-03T17:52:29.858Z,40.79
2022-09-03T17:56:02.780Z,41.24
2022-09-03T17:59:44.330Z,41.10
2022-09-03T18:03:21.625Z,41.40
2022-09-03T18:06:59.342Z,41.47
2022-09-03T18:10:40.930Z,41.69
2022-09-03T18:14:23.825Z,41.88
2022-09-03T18:17:58.685Z,42.07
2022-09-03T18:21:46.835Z,42.23
2022-09-03T18:25:34.104Z,42.36
2022-09-03T18:29:23.706Z,42.48
2022-09-03T18:33:08.060Z,42.62
2022-09-03T18:36:52.830Z,42.76
2022-09-03T18:40:41.793Z,42.83
2022-09-03T18:44:37.191Z,42.90
2022-09-03T18:48:31.832Z,42.99
2022-09-03T18:52:25.936Z,43.16
2022-09-03T18:56:22.424Z,43.23
2022-09-03T19:00:28.635Z,43.23
2022-09-03T19:04:26.374Z,43.23
2022-09-03T19:08:19.652Z,43.31
2022-09-03T19:12:14.416Z,43.50
2022-09-03T19:16:04.391Z,43.57
2022-09-03T19:20:15.213Z,43.75
2022-09-03T19:24:00.499Z,44.00
2022-09-03T19:27:59.324Z,44.26
2022-09-03T19:32:00.248Z,44.50
2022-09-03T19:37:18.998Z,45.04
2022-09-03T19:41:17.906Z,45.44
2022-09-03T19:45:17.887Z,45.65
2022-09-03T19:49:15.496Z,45.97
2022-09-03T19:53:06.937Z,46.45
2022-09-03T19:56:52.216Z,46.42
2022-09-03T20:00:37.303Z,46.51
2022-09-03T20:04:32.797Z,46.61
2022-09-03T20:08:18.146Z,46.75
2022-09-03T20:11:46.415Z,46.71
2022-09-03T20:15:14.746Z,46.78
2022-09-03T20:18:51.365Z,46.67
2022-09-03T20:22:28.669Z,46.70
2022-09-03T20:26:10.572Z,46.74
2022-09-03T20:29:54.638Z,46.96
2022-09-03T20:33:48.170Z,46.88
2022-09-03T20:37:27.927Z,47.16
2022-09-03T20:41:01.590Z,47.20
2022-09-03T20:44:47.420Z,47.09
2022-09-03T20:48:23.835Z,47.13
2022-09-03T20:51:58.567Z,47.09
2022-09-03T20:55:30.032Z,47.17
2022-09-03T20:59:11.849Z,47.20
2022-09-03T21:02:53.450Z,47.09
2022-09-03T21:06:30.887Z,47.04
2022-09-03T21:10:03.708Z,47.04
2022-09-03T21:13:41.731Z,47.03
2022-09-03T21:17:30.675Z,47.11
2022-09-03T21:21:09.650Z,47.06
2022-09-03T21:24:41.273Z,47.07
2022-09-03T21:28:15.197Z,47.13
2022-09-03T21:31:49.633Z,47.29
2022-09-03T21:35:24.684Z,47.24
2022-09-03T21:38:59.756Z,47.20
2022-09-03T21:42:37.559Z,47.23
2022-09-03T21:46:10.804Z,47.23
2022-09-03T21:49:44.695Z,47.23
2022-09-03T21:53:17.565Z,47.31
2022-09-03T21:57:09.654Z,47.31
2022-09-03T22:00:37.836Z,47.42
2022-09-03T22:04:04.888Z,47.50
2022-09-03T22:07:45.988Z,47.57
2022-09-03T22:11:26.120Z,47.62
2022-09-03T22:14:55.697Z,47.67
2022-09-03T22:18:28.775Z,47.73
2022-09-03T22:22:00.411Z,47.87
2022-09-03T22:25:36.030Z,47.82
2022-09-03T22:29:09.980Z,47.98
2022-09-03T22:32:51.939Z,47.92
2022-09-03T22:36:24.719Z,48.02
2022-09-03T22:39:56.440Z,48.06
2022-09-03T22:43:41.508Z,48.29
2022-09-03T22:47:20.353Z,48.22
2022-09-03T22:50:52.612Z,48.20
2022-09-03T22:54:34.806Z,48.32
2022-09-03T22:58:04.755Z,48.36
2022-09-03T23:01:36.985Z,48.32
2022-09-03T23:05:08.954Z,48.37
2022-09-03T23:08:40.152Z,48.54
2022-09-03T23:12:13.948Z,48.61
2022-09-03T23:15:43.275Z,48.61
2022-09-03T23:19:38.887Z,48.62
2022-09-03T23:23:16.986Z,48.72
2022-09-03T23:26:47.966Z,48.79
2022-09-03T23:30:15.248Z,48.86
2022-09-03T23:33:42.220Z,49.01
2022-09-03T23:37:34.052Z,49.20
2022-09-03T23:41:07.521Z,49.34
2022-09-03T23:44:54.644Z,49.35
2022-09-03T23:48:36.766Z,49.65
2022-09-03T23:52:22.807Z,49.77
2022-09-03T23:56:02.681Z,49.69
2022-09-03T23:59:36.704Z,50.14
